Latest Weather Observations for Roebourne Airport

IDW60801

Issued at 9:35 am WST Thursday 23 October 2014 (issued every 30 minutes, with the page automatically refreshed every 10 minutes)

About weather observations | Map of weather stations | Latest weather observations for WA | Other Formats
Station Details ID: 004090 Name: ROEBOURNE AERO Lat: -20.76 Lon: 117.16 Height: 10.7 m
Data from the previous 72 hours. | See also: Recent months at Roebourne Airport
Date/Time
WST
Temp
°C
App
Temp
°C
Dew
Point
Rel
Hum
%
Delta-T
°C
Wind Press
QNH
hPa
Press
MSL
hPa
Rain
since 9 am
mm
Dir
 
Spd
km/h
Gust
km/h
Spd
kts
Gust
kts
23/09:30am 36.1 33.0 8.8 19 15.6 S 15 22 8 12 1012.7 1012.7 0.0
23/09:00am 35.3 32.0 9.7 21 14.8 S 17 22 9 12 1012.6 1012.6 0.0
23/08:30am 33.8 29.8 9.1 22 14.0 SSW 20 28 11 15 1012.6 1012.6 0.0
23/08:00am 32.7 28.8 9.5 24 13.2 S 20 24 11 13 1012.5 1012.5 0.0
23/07:30am 31.0 27.8 9.8 27 12.0 SW 17 24 9 13 1012.3 1012.3 0.0
23/07:00am 29.3 25.6 9.4 29 11.1 SW 19 24 10 13 1012.1 1012.1 0.0
23/06:30am 27.4 24.4 9.3 32 10.0 WSW 15 19 8 10 1011.9 1011.9 0.0
23/06:00am 26.7 23.2 8.6 32 9.8 WSW 17 20 9 11 1011.3 1011.3 0.0
23/05:30am 27.0 23.8 8.4 31 10.1 SW 15 19 8 10 1011.0 1011.0 0.0
23/05:00am 27.7 23.9 9.0 31 10.3 SW 19 24 10 13 1010.8 1010.8 0.0
23/04:30am 28.0 24.3 9.3 31 10.3 SW 19 24 10 13 1010.6 1010.6 0.0
23/04:00am 28.1 24.4 9.4 31 10.4 SW 19 22 10 12 1010.4 1010.4 0.0
23/03:30am 28.6 24.8 9.8 31 10.5 SW 20 26 11 14 1010.4 1010.4 0.0
23/03:00am 28.4 25.1 9.6 31 10.5 WSW 17 19 9 10 1010.5 1010.5 0.0
23/02:30am 28.5 25.1 9.2 30 10.7 SW 17 20 9 11 1010.6 1010.6 0.0
23/02:00am 28.8 25.4 9.0 29 11.0 SW 17 20 9 11 1010.8 1010.8 0.0
23/01:30am 29.5 25.6 8.5 27 11.6 SW 19 22 10 12 1011.0 1011.0 0.0
23/01:00am 30.1 26.2 8.5 26 11.9 SW 19 24 10 13 1011.0 1011.0 0.0
23/12:30am 30.6 26.0 8.3 25 12.3 SW 22 28 12 15 1011.3 1011.3 0.0
23/12:00am 30.9 26.6 8.0 24 12.6 SW 20 26 11 14 1011.6 1011.6 0.0
 
Date/Time
WST
Temp
°C
App
Temp
°C
Dew
Point
Rel
Hum
%
Delta-T
°C
Wind Press
QNH
hPa
Press
MSL
hPa
Rain
since 9 am
mm
Dir
 
Spd
km/h
Gust
km/h
Spd
kts
Gust
kts
22/11:30pm 31.0 26.8 7.5 23 12.8 SW 19 24 10 13 1011.8 1011.8 0.0
22/11:00pm 31.5 27.1 6.5 21 13.5 SW 19 24 10 13 1012.0 1012.0 0.0
22/10:30pm 31.2 27.1 6.3 21 13.3 SW 17 20 9 11 1012.2 1012.2 0.0
22/10:00pm 32.7 28.0 6.1 19 14.3 SW 20 28 11 15 1012.0 1012.0 0.0
22/09:30pm 33.4 28.7 5.9 18 14.8 SW 20 28 11 15 1012.1 1012.1 0.0
22/09:00pm 33.7 29.0 6.1 18 14.9 WSW 20 26 11 14 1012.3 1012.3 0.0
22/08:30pm 34.0 29.4 5.5 17 15.3 WSW 19 24 10 13 1012.0 1012.0 0.0
22/08:00pm 34.8 30.1 5.3 16 15.8 WSW 19 24 10 13 1011.9 1011.9 0.0
22/07:30pm 35.7 30.8 5.1 15 16.5 SW 20 28 11 15 1011.6 1011.6 0.0
22/07:00pm 36.4 31.4 4.6 14 17.0 WSW 20 26 11 14 1011.1 1011.1 0.0
22/06:30pm 37.0 31.5 4.0 13 17.6 WSW 22 32 12 17 1010.5 1010.5 0.0
22/06:00pm 38.2 33.0 3.8 12 18.4 WSW 20 32 11 17 1010.1 1010.1 0.0
22/05:30pm 39.4 33.4 3.5 11 19.2 WSW 24 39 13 21 1009.8 1009.8 0.0
22/05:00pm 39.7 34.0 8.2 15 18.1 W 28 33 15 18 1009.6 1009.6 0.0
22/04:30pm 41.0 35.0 3.4 10 20.3 WSW 24 35 13 19 1009.5 1009.5 0.0
22/04:00pm 41.7 36.3 2.4 9 21.0 WSW 20 30 11 16 1009.5 1009.5 0.0
22/03:30pm 42.5 37.2 3.0 9 21.3 WSW 20 28 11 15 1009.5 1009.5 0.0
22/03:00pm 41.6 36.1 0.7 8 21.3 WSW 19 26 10 14 1009.8 1009.8 0.0
22/02:30pm 41.4 35.5 7.4 13 19.5 WNW 28 46 15 25 1010.1 1010.1 0.0
22/02:21pm 41.5 35.6 7.5 13 19.5 WNW 28 46 15 25 1010.1 1010.1 0.0
22/02:00pm 41.6 37.0 9.7 15 18.9 W 24 33 13 18 1010.5 1010.5 0.0
22/01:30pm 41.6 37.5 8.7 14 19.2 NW 20 30 11 16 1010.8 1010.8 0.0
22/01:00pm 41.2 36.3 8.4 14 19.0 W 24 35 13 19 1011.2 1011.2 0.0
22/12:30pm 40.4 36.8 9.7 16 18.1 NNW 19 30 10 16 1011.9 1011.9 0.0
22/12:00pm 39.8 36.5 2.5 10 19.7 NNW 9 20 5 11 1012.5 1012.5 0.0
22/11:30am 40.3 37.1 2.8 10 20.0 SSE 9 24 5 13 1012.9 1012.9 0.0
22/11:00am 39.5 36.0 3.6 11 19.3 SW 11 22 6 12 1013.3 1013.3 0.0
22/10:30am 38.8 36.4 4.3 12 18.6 SW 6 17 3 9 1013.8 1013.7 0.0
22/10:00am 38.8 34.7 4.3 12 18.6 S 15 26 8 14 1014.1 1014.0 0.0
22/09:30am 38.2 33.6 3.8 12 18.4 S 17 28 9 15 1014.3 1014.2 0.0
22/09:00am 36.7 33.3 3.8 13 17.4 S 11 17 6 9 1014.4 1014.3 0.0
22/08:30am 35.2 30.0 3.7 14 16.5 SSE 20 26 11 14 1014.4 1014.3 0.0
22/08:00am 34.0 29.8 3.7 15 15.8 S 15 20 8 11 1014.2 1014.1 0.0
22/07:30am 31.6 28.0 5.2 19 13.9 S 13 20 7 11 1013.9 1013.8 0.0
22/07:00am 28.3 24.6 4.6 22 12.1 SSW 13 17 7 9 1013.7 1013.6 0.0
22/06:30am 26.5 23.6 4.9 25 11.0 SSW 9 11 5 6 1013.7 1013.6 0.0
22/06:00am 25.2 21.1 4.3 26 10.4 SW 15 17 8 9 1013.3 1013.3 0.0
22/05:30am 24.6 19.8 4.4 27 10.1 SW 19 20 10 11 1013.1 1013.1 0.0
22/05:00am 25.0 20.2 4.7 27 10.2 SW 19 24 10 13 1012.9 1012.9 0.0
22/04:30am 25.5 20.2 5.1 27 10.3 SW 22 26 12 14 1012.6 1012.6 0.0
22/04:00am 25.4 20.6 5.6 28 10.1 SW 20 24 11 13 1012.5 1012.5 0.0
22/03:30am 25.4 20.6 5.6 28 10.1 SW 20 26 11 14 1012.5 1012.5 0.0
22/03:00am 25.9 20.8 6.0 28 10.3 SW 22 28 12 15 1012.7 1012.7 0.0
22/02:30am 25.4 19.8 5.6 28 10.1 WSW 24 30 13 16 1012.8 1012.8 0.0
22/02:00am 26.2 20.8 4.6 25 10.9 SW 22 28 12 15 1012.9 1012.9 0.0
22/01:30am 26.4 20.9 4.2 24 11.1 SW 22 30 12 16 1013.1 1013.1 0.0
22/01:00am 26.3 21.2 2.9 22 11.5 SW 19 24 10 13 1013.4 1013.4 0.0
22/12:30am 25.8 20.9 1.8 21 11.5 SW 17 22 9 12 1013.7 1013.6 0.0
22/12:00am 26.3 21.2 0.9 19 12.0 SW 17 20 9 11 1014.0 1013.9 0.0
 
Date/Time
WST
Temp
°C
App
Temp
°C
Dew
Point
Rel
Hum
%
Delta-T
°C
Wind Press
QNH
hPa
Press
MSL
hPa
Rain
since 9 am
mm
Dir
 
Spd
km/h
Gust
km/h
Spd
kts
Gust
kts
21/11:30pm 26.7 21.2 0.4 18 12.3 SW 19 22 10 12 1014.3 1014.2 0.0
21/11:00pm 27.1 21.3 2.2 20 12.1 SW 22 28 12 15 1014.5 1014.4 0.0
21/10:30pm 27.4 22.2 3.8 22 11.8 SW 20 28 11 15 1014.9 1014.8 0.0
21/10:00pm 27.1 23.7 6.0 26 11.0 WSW 13 17 7 9 1015.3 1015.2 0.0
21/09:30pm 27.4 23.7 6.2 26 11.1 WSW 15 20 8 11 1015.4 1015.3 0.0
21/09:00pm 28.2 23.9 5.1 23 11.9 WSW 17 22 9 12 1015.4 1015.3 0.0
21/08:30pm 28.0 24.4 6.7 26 11.3 W 15 19 8 10 1015.3 1015.2 0.0
21/08:00pm 28.0 24.4 10.7 34 9.8 W 20 24 11 13 1015.1 1015.0 0.0
21/07:30pm 28.6 24.9 10.3 32 10.3 W 20 26 11 14 1014.9 1014.8 0.0
21/07:00pm 29.3 24.1 8.9 28 11.3 W 26 33 14 18 1014.7 1014.6 0.0
21/06:30pm 30.1 25.2 8.5 26 11.9 W 24 30 13 16 1014.4 1014.3 0.0
21/06:00pm 31.4 26.0 9.6 26 12.3 WNW 28 35 15 19 1014.1 1014.0 0.0
21/05:30pm 33.1 26.5 7.9 21 14.0 WNW 32 37 17 20 1013.8 1013.7 0.0
21/05:00pm 34.1 27.6 4.7 16 15.6 WNW 28 35 15 19 1013.3 1013.3 0.0
21/04:30pm 35.4 29.5 7.5 18 15.6 WNW 28 33 15 18 1013.2 1013.2 0.0
21/04:00pm 36.6 30.3 5.8 15 16.8 WNW 28 37 15 20 1013.2 1013.2 0.0
21/03:30pm 37.3 31.9 6.3 15 17.1 WNW 24 33 13 18 1013.1 1013.1 0.0
21/03:00pm 37.5 31.9 5.5 14 17.5 WNW 24 32 13 17 1013.4 1013.4 0.0
21/02:30pm 37.4 31.6 4.4 13 17.7 NW 24 35 13 19 1013.4 1013.4 0.0
21/02:00pm 38.1 32.0 2.5 11 18.6 NW 24 35 13 19 1013.9 1013.8 0.0
21/01:30pm 38.0 32.2 2.4 11 18.6 NW 22 26 12 14 1014.2 1014.1 0.0
21/01:00pm 36.9 31.4 1.6 11 18.1 NW 20 26 11 14 1014.6 1014.5 0.0
21/12:30pm 37.7 32.5 3.4 12 18.2 N 20 30 11 16 1014.9 1014.8 0.0
21/12:00pm 36.9 32.7 4.0 13 17.5 N 15 26 8 14 1015.3 1015.2 0.0
21/11:30am 37.0 34.0 7.9 17 16.4 N 13 19 7 10 1015.7 1015.6 0.0
21/11:00am 35.9 33.7 13.4 26 13.7 N 17 24 9 13 1016.1 1016.0 0.0
21/10:30am 34.8 32.7 13.6 28 12.9 N 17 24 9 13 1016.4 1016.3 0.0
21/10:00am 33.5 32.3 9.5 23 13.7 WNW 6 11 3 6 1016.6 1016.5 0.0
21/09:30am 32.2 31.5 11.4 28 12.1 NW 6 9 3 5 1016.6 1016.5 0.0
21/09:00am 30.7 30.3 13.0 33 10.5 WSW 7 11 4 6 1016.7 1016.6 0.0
21/08:30am 28.4 27.9 13.9 41 8.7 WSW 9 13 5 7 1016.7 1016.6 0.0
21/08:00am 26.7 26.7 15.1 49 7.0 W 9 15 5 8 1016.8 1016.7 0.0
21/07:30am 25.3 24.7 15.6 55 5.9 SW 13 17 7 9 1016.6 1016.5 0.0
21/07:00am 23.2 22.5 16.5 66 4.1 SW 15 17 8 9 1016.2 1016.1 0.0
21/06:30am 21.5 20.8 16.5 73 3.0 SW 15 19 8 10 1016.0 1015.9 0.0
21/06:00am 20.2 19.8 16.2 78 2.4 WSW 13 15 7 8 1015.8 1015.7 0.0
21/05:30am 19.7 20.1 16.2 80 2.1 WSW 9 13 5 7 1015.6 1015.5 0.0
21/05:00am 20.1 20.0 16.1 78 2.4 WSW 11 15 6 8 1015.4 1015.3 0.0
21/04:30am 20.3 19.6 16.3 78 2.4 WSW 15 17 8 9 1015.2 1015.1 0.0
21/04:00am 21.0 19.9 16.4 75 2.8 WSW 17 20 9 11 1014.9 1014.8 0.0
21/03:30am 21.0 19.8 16.2 74 2.9 WSW 17 22 9 12 1014.9 1014.8 0.0
21/03:00am 21.0 20.1 15.8 72 3.1 WSW 15 20 8 11 1014.9 1014.8 0.0
21/02:30am 21.2 20.5 15.3 69 3.5 WSW 13 20 7 11 1015.0 1014.9 0.0
21/02:00am 21.7 20.3 15.5 68 3.7 WSW 17 26 9 14 1015.0 1014.9 0.0
21/01:30am 21.2 20.1 14.4 65 4.0 WSW 13 15 7 8 1015.1 1015.0 0.0
21/01:00am 21.6 20.5 14.3 63 4.3 WSW 13 19 7 10 1015.4 1015.3 0.0
21/12:30am 21.9 19.5 14.3 62 4.4 WSW 20 26 11 14 1015.5 1015.4 0.0
21/12:00am 21.6 20.2 14.5 64 4.2 W 15 19 8 10 1015.6 1015.5 0.0
 
Date/Time
WST
Temp
°C
App
Temp
°C
Dew
Point
Rel
Hum
%
Delta-T
°C
Wind Press
QNH
hPa
Press
MSL
hPa
Rain
since 9 am
mm
Dir
 
Spd
km/h
Gust
km/h
Spd
kts
Gust
kts
20/11:30pm 21.9 20.0 14.3 62 4.4 W 17 24 9 13 1016.0 1015.9 0.0
20/11:00pm 22.5 19.8 14.6 61 4.7 W 22 28 12 15 1016.1 1016.0 0.0
20/10:30pm 22.9 20.6 14.2 58 5.1 W 19 24 10 13 1016.2 1016.1 0.0
20/10:00pm 23.2 21.0 15.0 60 4.9 W 20 28 11 15 1016.1 1016.0 0.0
20/09:30pm 23.4 21.2 14.4 57 5.3 W 19 24 10 13 1016.1 1016.0 0.0
20/09:00pm 23.7 22.4 14.9 57 5.2 WNW 15 20 8 11 1016.0 1015.9 0.0
20/08:30pm 24.4 22.8 15.1 56 5.6 W 17 22 9 12 1015.7 1015.6 0.0
20/08:00pm 24.7 22.2 14.2 52 6.2 W 20 28 11 15 1015.3 1015.2 0.0
20/07:30pm 25.2 22.4 13.1 47 7.0 W 20 24 11 13 1015.2 1015.1 0.0
20/07:00pm 25.8 22.4 13.6 47 7.2 WNW 24 35 13 19 1014.6 1014.5 0.0
20/06:30pm 26.6 23.1 13.3 43 7.8 W 24 30 13 16 1014.2 1014.1 0.0
20/06:00pm 28.1 23.9 11.2 35 9.7 WNW 24 32 13 17 1013.9 1013.8 0.0
20/05:30pm 29.5 24.1 8.0 26 11.7 WNW 26 33 14 18 1013.4 1013.4 0.0
20/05:00pm 31.1 26.0 7.5 23 12.9 WNW 24 32 13 17 1013.1 1013.1 0.0
20/04:30pm 31.7 26.9 8.7 24 12.8 NW 24 33 13 18 1013.0 1013.0 0.0
20/04:00pm 31.8 27.1 9.3 25 12.7 NW 24 32 13 17 1012.9 1012.9 0.0
20/03:30pm 32.8 27.6 8.9 23 13.5 NNW 26 35 14 19 1012.9 1012.9 0.0
20/03:00pm 33.5 29.2 10.8 25 13.2 NW 24 32 13 17 1013.0 1013.0 0.0
20/02:30pm 34.0 30.4 9.9 23 13.9 NW 19 28 10 15 1012.9 1012.9 0.0
20/02:00pm 34.9 30.0 7.1 18 15.4 NW 22 32 12 17 1013.2 1013.2 0.0
20/01:30pm 34.7 30.0 6.1 17 15.5 NW 20 28 11 15 1013.6 1013.5 0.0
20/01:00pm 34.5 29.6 5.0 16 15.7 NNW 20 32 11 17 1013.8 1013.7 0.0
20/12:30pm 34.2 27.2 3.9 15 15.9 N 30 35 16 19 1014.0 1013.9 0.0
20/12:00pm 34.1 27.8 7.2 19 14.8 N 30 37 16 20 1014.5 1014.4 0.0
20/11:30am 34.0 31.4 9.3 22 14.1 NNW 13 22 7 12 1014.8 1014.7 0.0
20/11:00am 32.9 29.9 1.9 14 15.6 WNW 7 13 4 7 1015.3 1015.2 0.0
20/10:30am 32.6 29.5 3.5 16 15.0 SSW 9 17 5 9 1015.7 1015.6 0.0
20/10:00am 31.3 28.4 4.9 19 13.8 WSW 9 13 5 7 1016.0 1015.9 0.0

Other Formats:

Comma delimited format used in spreadsheet applications
http://www.bom.gov.au/fwo/IDW60801/IDW60801.94308.axf

JavaScript Object Notation format (JSON) in row-major order
http://www.bom.gov.au/fwo/IDW60801/IDW60801.94308.json